sensor_id;sensor_type;location;lat;lon;timestamp;temperature;humidity
39067;DHT22;24821;51.988;6.020;2023-04-25T00:01:05;8.50;99.90
39067;DHT22;24821;51.988;6.020;2023-04-25T00:03:33;8.40;99.90
39067;DHT22;24821;51.988;6.020;2023-04-25T00:05:59;8.40;99.90
39067;DHT22;24821;51.988;6.020;2023-04-25T00:08:29;8.40;99.90
39067;DHT22;24821;51.988;6.020;2023-04-25T00:10:55;8.30;99.90
39067;DHT22;24821;51.988;6.020;2023-04-25T00:13:20;8.30;99.90
39067;DHT22;24821;51.988;6.020;2023-04-25T00:15:46;8.30;99.90
39067;DHT22;24821;51.988;6.020;2023-04-25T00:18:13;8.20;99.90
39067;DHT22;24821;51.988;6.020;2023-04-25T00:20:39;8.20;99.90
39067;DHT22;24821;51.988;6.020;2023-04-25T00:23:05;8.20;99.90
39067;DHT22;24821;51.988;6.020;2023-04-25T00:25:31;8.20;99.90
39067;DHT22;24821;51.988;6.020;2023-04-25T00:27:57;8.10;99.90
39067;DHT22;24821;51.988;6.020;2023-04-25T00:30:22;8.10;99.90
39067;DHT22;24821;51.988;6.020;2023-04-25T00:32:48;8.00;99.90
39067;DHT22;24821;51.988;6.020;2023-04-25T00:35:14;8.00;99.90
39067;DHT22;24821;51.988;6.020;2023-04-25T00:37:39;7.90;99.90
39067;DHT22;24821;51.988;6.020;2023-04-25T00:40:06;7.90;99.90
39067;DHT22;24821;51.988;6.020;2023-04-25T00:42:32;7.90;99.90
39067;DHT22;24821;51.988;6.020;2023-04-25T00:44:58;7.80;99.90
39067;DHT22;24821;51.988;6.020;2023-04-25T00:47:25;7.80;99.90
39067;DHT22;24821;51.988;6.020;2023-04-25T00:49:50;7.80;99.90
39067;DHT22;24821;51.988;6.020;2023-04-25T00:52:16;7.80;99.90
39067;DHT22;24821;51.988;6.020;2023-04-25T00:54:42;7.70;99.90
39067;DHT22;24821;51.988;6.020;2023-04-25T00:57:08;7.70;99.90
39067;DHT22;24821;51.988;6.020;2023-04-25T00:59:33;7.70;99.90
39067;DHT22;24821;51.988;6.020;2023-04-25T01:01:59;7.70;99.90
39067;DHT22;24821;51.988;6.020;2023-04-25T01:04:27;7.70;99.90
39067;DHT22;24821;51.988;6.020;2023-04-25T01:06:54;7.70;99.90
39067;DHT22;24821;51.988;6.020;2023-04-25T01:09:20;7.70;99.90
39067;DHT22;24821;51.988;6.020;2023-04-25T01:11:46;7.70;99.90
39067;DHT22;24821;51.988;6.020;2023-04-25T01:14:11;7.70;99.90
39067;DHT22;24821;51.988;6.020;2023-04-25T01:16:37;7.80;99.90
39067;DHT22;24821;51.988;6.020;2023-04-25T01:19:08;7.80;99.90
39067;DHT22;24821;51.988;6.020;2023-04-25T01:21:36;7.80;99.90
39067;DHT22;24821;51.988;6.020;2023-04-25T01:24:02;7.80;99.90
39067;DHT22;24821;51.988;6.020;2023-04-25T01:26:28;7.80;99.90
39067;DHT22;24821;51.988;6.020;2023-04-25T01:28:54;7.80;99.90
39067;DHT22;24821;51.988;6.020;2023-04-25T01:31:20;7.80;99.90
39067;DHT22;24821;51.988;6.020;2023-04-25T01:33:47;7.80;99.90
39067;DHT22;24821;51.988;6.020;2023-04-25T01:36:13;7.80;99.90
39067;DHT22;24821;51.988;6.020;2023-04-25T01:38:39;7.80;99.90
39067;DHT22;24821;51.988;6.020;2023-04-25T01:41:05;7.80;99.90
39067;DHT22;24821;51.988;6.020;2023-04-25T01:43:31;7.80;99.90
39067;DHT22;24821;51.988;6.020;2023-04-25T01:45:57;7.80;99.90
39067;DHT22;24821;51.988;6.020;2023-04-25T01:48:22;7.80;99.90
39067;DHT22;24821;51.988;6.020;2023-04-25T01:50:48;7.80;99.90
39067;DHT22;24821;51.988;6.020;2023-04-25T01:53:14;7.90;99.90
39067;DHT22;24821;51.988;6.020;2023-04-25T01:55:40;7.90;99.90
39067;DHT22;24821;51.988;6.020;2023-04-25T01:58:05;7.90;99.90
39067;DHT22;24821;51.988;6.020;2023-04-25T02:00:35;7.90;99.90
39067;DHT22;24821;51.988;6.020;2023-04-25T02:03:03;7.90;99.90
39067;DHT22;24821;51.988;6.020;2023-04-25T02:05:34;7.90;99.90
39067;DHT22;24821;51.988;6.020;2023-04-25T02:08:00;7.90;99.90
39067;DHT22;24821;51.988;6.020;2023-04-25T02:10:26;7.90;99.90
39067;DHT22;24821;51.988;6.020;2023-04-25T02:12:51;7.90;99.90
39067;DHT22;24821;51.988;6.020;2023-04-25T02:15:17;7.90;99.90
39067;DHT22;24821;51.988;6.020;2023-04-25T02:17:42;7.90;99.90
39067;DHT22;24821;51.988;6.020;2023-04-25T02:20:08;7.90;99.90
39067;DHT22;24821;51.988;6.020;2023-04-25T02:22:35;7.90;99.90
39067;DHT22;24821;51.988;6.020;2023-04-25T02:25:01;7.80;99.90
39067;DHT22;24821;51.988;6.020;2023-04-25T02:27:27;7.80;99.90
39067;DHT22;24821;51.988;6.020;2023-04-25T02:29:53;7.80;99.90
39067;DHT22;24821;51.988;6.020;2023-04-25T02:32:18;7.80;99.90
39067;DHT22;24821;51.988;6.020;2023-04-25T02:34:44;7.80;99.90
39067;DHT22;24821;51.988;6.020;2023-04-25T02:37:09;7.80;99.90
39067;DHT22;24821;51.988;6.020;2023-04-25T02:39:35;7.70;99.90
39067;DHT22;24821;51.988;6.020;2023-04-25T02:42:01;7.80;99.90
39067;DHT22;24821;51.988;6.020;2023-04-25T02:44:26;7.70;99.90
39067;DHT22;24821;51.988;6.020;2023-04-25T02:46:52;7.80;99.90
39067;DHT22;24821;51.988;6.020;2023-04-25T02:49:17;7.70;99.90
39067;DHT22;24821;51.988;6.020;2023-04-25T02:51:43;7.70;99.90
39067;DHT22;24821;51.988;6.020;2023-04-25T02:54:08;7.70;99.90
39067;DHT22;24821;51.988;6.020;2023-04-25T02:56:34;7.70;99.90
39067;DHT22;24821;51.988;6.020;2023-04-25T02:59:00;7.60;99.90
39067;DHT22;24821;51.988;6.020;2023-04-25T03:01:25;7.60;99.90
39067;DHT22;24821;51.988;6.020;2023-04-25T03:03:51;7.50;99.90
39067;DHT22;24821;51.988;6.020;2023-04-25T03:06:16;7.50;99.90
39067;DHT22;24821;51.988;6.020;2023-04-25T03:08:42;7.40;99.90
39067;DHT22;24821;51.988;6.020;2023-04-25T03:11:08;7.40;99.90
39067;DHT22;24821;51.988;6.020;2023-04-25T03:13:33;7.40;99.90
39067;DHT22;24821;51.988;6.020;2023-04-25T03:15:59;7.30;99.90
39067;DHT22;24821;51.988;6.020;2023-04-25T03:18:24;7.30;99.90
39067;DHT22;24821;51.988;6.020;2023-04-25T03:20:50;7.30;99.90
39067;DHT22;24821;51.988;6.020;2023-04-25T03:23:15;7.20;99.90
39067;DHT22;24821;51.988;6.020;2023-04-25T03:25:41;7.20;99.90
39067;DHT22;24821;51.988;6.020;2023-04-25T03:28:07;7.20;99.90
39067;DHT22;24821;51.988;6.020;2023-04-25T03:30:32;7.20;99.90
39067;DHT22;24821;51.988;6.020;2023-04-25T03:32:58;7.10;99.90
39067;DHT22;24821;51.988;6.020;2023-04-25T03:35:23;7.10;99.90
39067;DHT22;24821;51.988;6.020;2023-04-25T03:37:49;7.10;99.90
39067;DHT22;24821;51.988;6.020;2023-04-25T03:40:15;7.10;99.90
39067;DHT22;24821;51.988;6.020;2023-04-25T03:42:40;7.10;99.90
39067;DHT22;24821;51.988;6.020;2023-04-25T03:45:06;7.00;99.90
39067;DHT22;24821;51.988;6.020;2023-04-25T03:47:32;7.00;99.90
39067;DHT22;24821;51.988;6.020;2023-04-25T03:49:58;7.00;99.90
39067;DHT22;24821;51.988;6.020;2023-04-25T03:52:23;7.00;99.90
39067;DHT22;24821;51.988;6.020;2023-04-25T03:54:49;6.90;99.90
39067;DHT22;24821;51.988;6.020;2023-04-25T03:57:14;6.90;99.90
39067;DHT22;24821;51.988;6.020;2023-04-25T03:59:40;6.90;99.90
39067;DHT22;24821;51.988;6.020;2023-04-25T04:02:05;6.80;99.90
39067;DHT22;24821;51.988;6.020;2023-04-25T04:04:31;6.80;99.90
39067;DHT22;24821;51.988;6.020;2023-04-25T04:06:57;6.80;99.90
39067;DHT22;24821;51.988;6.020;2023-04-25T04:09:22;6.80;99.90
39067;DHT22;24821;51.988;6.020;2023-04-25T04:11:48;6.80;99.90
39067;DHT22;24821;51.988;6.020;2023-04-25T04:14:13;6.70;99.90
39067;DHT22;24821;51.988;6.020;2023-04-25T04:16:39;6.70;99.90
39067;DHT22;24821;51.988;6.020;2023-04-25T04:19:04;6.70;99.90
39067;DHT22;24821;51.988;6.020;2023-04-25T04:21:30;6.60;99.90
39067;DHT22;24821;51.988;6.020;2023-04-25T04:23:57;6.60;99.90
39067;DHT22;24821;51.988;6.020;2023-04-25T04:26:23;6.60;99.90
39067;DHT22;24821;51.988;6.020;2023-04-25T04:28:49;6.60;99.90
39067;DHT22;24821;51.988;6.020;2023-04-25T04:31:22;6.60;99.90
39067;DHT22;24821;51.988;6.020;2023-04-25T04:33:49;6.50;99.90
39067;DHT22;24821;51.988;6.020;2023-04-25T04:36:15;6.50;99.90
39067;DHT22;24821;51.988;6.020;2023-04-25T04:38:41;6.50;99.90
39067;DHT22;24821;51.988;6.020;2023-04-25T04:41:07;6.50;99.90
39067;DHT22;24821;51.988;6.020;2023-04-25T04:43:33;6.50;99.90
39067;DHT22;24821;51.988;6.020;2023-04-25T04:46:00;6.50;99.90
39067;DHT22;24821;51.988;6.020;2023-04-25T04:48:26;6.60;99.90
39067;DHT22;24821;51.988;6.020;2023-04-25T04:50:52;6.60;99.90
39067;DHT22;24821;51.988;6.020;2023-04-25T04:53:17;6.70;99.90
39067;DHT22;24821;51.988;6.020;2023-04-25T04:55:43;6.70;99.90
39067;DHT22;24821;51.988;6.020;2023-04-25T04:58:08;6.60;99.90
39067;DHT22;24821;51.988;6.020;2023-04-25T05:00:34;6.60;99.90
39067;DHT22;24821;51.988;6.020;2023-04-25T05:03:00;6.60;99.90
39067;DHT22;24821;51.988;6.020;2023-04-25T05:05:25;6.60;99.90
39067;DHT22;24821;51.988;6.020;2023-04-25T05:07:51;6.60;99.90
39067;DHT22;24821;51.988;6.020;2023-04-25T05:10:18;6.60;99.90
39067;DHT22;24821;51.988;6.020;2023-04-25T05:12:44;6.60;99.90
39067;DHT22;24821;51.988;6.020;2023-04-25T05:15:10;6.70;99.90
39067;DHT22;24821;51.988;6.020;2023-04-25T05:17:36;6.70;99.90
39067;DHT22;24821;51.988;6.020;2023-04-25T05:20:01;6.80;99.90
39067;DHT22;24821;51.988;6.020;2023-04-25T05:22:28;6.80;99.90
39067;DHT22;24821;51.988;6.020;2023-04-25T05:24:53;6.90;99.90
39067;DHT22;24821;51.988;6.020;2023-04-25T05:27:19;6.90;99.90
39067;DHT22;24821;51.988;6.020;2023-04-25T05:29:45;7.00;99.90
39067;DHT22;24821;51.988;6.020;2023-04-25T05:32:10;7.00;99.90
39067;DHT22;24821;51.988;6.020;2023-04-25T05:34:36;7.10;99.90
39067;DHT22;24821;51.988;6.020;2023-04-25T05:37:02;7.10;99.90
39067;DHT22;24821;51.988;6.020;2023-04-25T05:39:28;7.10;99.90
39067;DHT22;24821;51.988;6.020;2023-04-25T05:41:55;7.20;99.90
39067;DHT22;24821;51.988;6.020;2023-04-25T05:44:20;7.20;99.90
39067;DHT22;24821;51.988;6.020;2023-04-25T05:46:46;7.30;99.90
39067;DHT22;24821;51.988;6.020;2023-04-25T05:49:12;7.40;99.90
39067;DHT22;24821;51.988;6.020;2023-04-25T05:51:38;7.40;99.90
39067;DHT22;24821;51.988;6.020;2023-04-25T05:54:03;7.40;99.90
39067;DHT22;24821;51.988;6.020;2023-04-25T05:56:29;7.30;99.90
39067;DHT22;24821;51.988;6.020;2023-04-25T05:58:54;7.20;99.90
39067;DHT22;24821;51.988;6.020;2023-04-25T06:01:21;7.20;99.90
39067;DHT22;24821;51.988;6.020;2023-04-25T06:03:47;7.20;99.90
39067;DHT22;24821;51.988;6.020;2023-04-25T06:06:12;7.30;99.90
39067;DHT22;24821;51.988;6.020;2023-04-25T06:08:38;7.30;99.90
39067;DHT22;24821;51.988;6.020;2023-04-25T06:11:04;7.30;99.90
39067;DHT22;24821;51.988;6.020;2023-04-25T06:13:30;7.40;99.90
39067;DHT22;24821;51.988;6.020;2023-04-25T06:15:55;7.50;99.90
39067;DHT22;24821;51.988;6.020;2023-04-25T06:18:21;7.60;99.90
39067;DHT22;24821;51.988;6.020;2023-04-25T06:20:46;7.60;99.90
39067;DHT22;24821;51.988;6.020;2023-04-25T06:23:12;7.60;99.90
39067;DHT22;24821;51.988;6.020;2023-04-25T06:25:37;7.70;99.90
39067;DHT22;24821;51.988;6.020;2023-04-25T06:28:03;7.80;99.90
39067;DHT22;24821;51.988;6.020;2023-04-25T06:30:29;7.90;99.90
39067;DHT22;24821;51.988;6.020;2023-04-25T06:32:55;8.00;99.90
39067;DHT22;24821;51.988;6.020;2023-04-25T06:35:21;8.10;99.90
39067;DHT22;24821;51.988;6.020;2023-04-25T06:37:46;8.20;99.90
39067;DHT22;24821;51.988;6.020;2023-04-25T06:40:12;8.40;99.90
39067;DHT22;24821;51.988;6.020;2023-04-25T06:42:38;8.60;99.90
39067;DHT22;24821;51.988;6.020;2023-04-25T06:45:05;8.70;99.90
39067;DHT22;24821;51.988;6.020;2023-04-25T06:47:30;8.90;99.90
39067;DHT22;24821;51.988;6.020;2023-04-25T06:49:56;9.10;99.90
39067;DHT22;24821;51.988;6.020;2023-04-25T06:52:22;9.20;99.90
39067;DHT22;24821;51.988;6.020;2023-04-25T06:54:47;9.30;99.90
39067;DHT22;24821;51.988;6.020;2023-04-25T06:57:13;9.40;99.90
39067;DHT22;24821;51.988;6.020;2023-04-25T06:59:38;9.40;99.90
39067;DHT22;24821;51.988;6.020;2023-04-25T07:02:04;9.50;99.90
39067;DHT22;24821;51.988;6.020;2023-04-25T07:04:31;9.70;99.90
39067;DHT22;24821;51.988;6.020;2023-04-25T07:06:56;9.80;99.90
39067;DHT22;24821;51.988;6.020;2023-04-25T07:09:22;9.90;99.90
39067;DHT22;24821;51.988;6.020;2023-04-25T07:11:48;9.90;99.90
39067;DHT22;24821;51.988;6.020;2023-04-25T07:14:13;9.90;99.90
39067;DHT22;24821;51.988;6.020;2023-04-25T07:16:39;9.90;99.90
39067;DHT22;24821;51.988;6.020;2023-04-25T07:19:05;9.90;99.90
39067;DHT22;24821;51.988;6.020;2023-04-25T07:21:30;9.80;99.90
39067;DHT22;24821;51.988;6.020;2023-04-25T07:23:57;9.80;99.90
39067;DHT22;24821;51.988;6.020;2023-04-25T07:26:22;9.80;99.90
39067;DHT22;24821;51.988;6.020;2023-04-25T07:28:48;9.80;99.90
39067;DHT22;24821;51.988;6.020;2023-04-25T07:31:16;9.90;99.90
39067;DHT22;24821;51.988;6.020;2023-04-25T07:33:43;10.10;99.90
39067;DHT22;24821;51.988;6.020;2023-04-25T07:36:10;10.20;99.90
39067;DHT22;24821;51.988;6.020;2023-04-25T07:38:35;10.40;99.90
39067;DHT22;24821;51.988;6.020;2023-04-25T07:41:01;10.70;99.90
39067;DHT22;24821;51.988;6.020;2023-04-25T07:43:27;11.00;99.90
39067;DHT22;24821;51.988;6.020;2023-04-25T07:45:52;11.30;99.90
39067;DHT22;24821;51.988;6.020;2023-04-25T07:48:18;11.60;99.90
39067;DHT22;24821;51.988;6.020;2023-04-25T07:50:44;12.00;99.90
39067;DHT22;24821;51.988;6.020;2023-04-25T07:53:10;12.30;99.90
39067;DHT22;24821;51.988;6.020;2023-04-25T07:55:36;12.20;99.30
39067;DHT22;24821;51.988;6.020;2023-04-25T07:58:08;12.10;99.50
39067;DHT22;24821;51.988;6.020;2023-04-25T08:00:34;12.10;99.40
39067;DHT22;24821;51.988;6.020;2023-04-25T08:03:00;11.90;98.90
39067;DHT22;24821;51.988;6.020;2023-04-25T08:05:25;11.90;99.20
39067;DHT22;24821;51.988;6.020;2023-04-25T08:07:51;11.90;99.20
39067;DHT22;24821;51.988;6.020;2023-04-25T08:10:17;11.90;99.10
39067;DHT22;24821;51.988;6.020;2023-04-25T08:12:42;12.00;99.30
39067;DHT22;24821;51.988;6.020;2023-04-25T08:15:08;12.00;98.60
39067;DHT22;24821;51.988;6.020;2023-04-25T08:17:34;11.90;98.60
39067;DHT22;24821;51.988;6.020;2023-04-25T08:20:00;11.80;98.10
39067;DHT22;24821;51.988;6.020;2023-04-25T08:22:25;11.60;97.00
39067;DHT22;24821;51.988;6.020;2023-04-25T08:24:51;11.40;97.00
39067;DHT22;24821;51.988;6.020;2023-04-25T08:27:18;11.20;97.30
39067;DHT22;24821;51.988;6.020;2023-04-25T08:29:44;11.00;98.00
39067;DHT22;24821;51.988;6.020;2023-04-25T08:32:09;11.00;98.50
39067;DHT22;24821;51.988;6.020;2023-04-25T08:34:35;11.20;98.90
39067;DHT22;24821;51.988;6.020;2023-04-25T08:37:02;11.30;98.10
39067;DHT22;24821;51.988;6.020;2023-04-25T08:39:29;11.40;98.00
39067;DHT22;24821;51.988;6.020;2023-04-25T08:41:55;11.40;97.30
39067;DHT22;24821;51.988;6.020;2023-04-25T08:44:22;11.40;96.50
39067;DHT22;24821;51.988;6.020;2023-04-25T08:46:49;11.20;95.40
39067;DHT22;24821;51.988;6.020;2023-04-25T08:49:16;11.20;95.90
39067;DHT22;24821;51.988;6.020;2023-04-25T08:51:46;11.20;95.40
39067;DHT22;24821;51.988;6.020;2023-04-25T08:54:13;11.40;96.00
39067;DHT22;24821;51.988;6.020;2023-04-25T08:56:48;11.50;96.40
39067;DHT22;24821;51.988;6.020;2023-04-25T08:59:14;11.60;97.90
39067;DHT22;24821;51.988;6.020;2023-04-25T09:01:40;11.50;97.50
39067;DHT22;24821;51.988;6.020;2023-04-25T09:04:06;11.40;97.50
39067;DHT22;24821;51.988;6.020;2023-04-25T09:06:32;11.30;97.30
39067;DHT22;24821;51.988;6.020;2023-04-25T09:09:03;11.20;97.60
39067;DHT22;24821;51.988;6.020;2023-04-25T09:11:30;11.10;97.70
39067;DHT22;24821;51.988;6.020;2023-04-25T09:14:15;11.10;98.10
39067;DHT22;24821;51.988;6.020;2023-04-25T09:16:58;11.30;97.90
39067;DHT22;24821;51.988;6.020;2023-04-25T09:19:28;11.70;98.00
39067;DHT22;24821;51.988;6.020;2023-04-25T09:21:55;12.00;97.70
39067;DHT22;24821;51.988;6.020;2023-04-25T09:24:50;12.40;97.10
39067;DHT22;24821;51.988;6.020;2023-04-25T09:27:20;13.00;96.30
39067;DHT22;24821;51.988;6.020;2023-04-25T09:29:57;13.20;95.00
39067;DHT22;24821;51.988;6.020;2023-04-25T09:32:24;13.00;94.90
39067;DHT22;24821;51.988;6.020;2023-04-25T09:34:51;12.90;95.00
39067;DHT22;24821;51.988;6.020;2023-04-25T09:37:25;12.90;94.60
39067;DHT22;24821;51.988;6.020;2023-04-25T09:39:54;12.70;94.70
39067;DHT22;24821;51.988;6.020;2023-04-25T09:42:24;12.60;94.80
39067;DHT22;24821;51.988;6.020;2023-04-25T09:44:52;12.60;94.90
39067;DHT22;24821;51.988;6.020;2023-04-25T09:47:18;12.90;95.00
39067;DHT22;24821;51.988;6.020;2023-04-25T09:49:47;13.20;94.00
39067;DHT22;24821;51.988;6.020;2023-04-25T09:52:17;13.40;92.70
39067;DHT22;24821;51.988;6.020;2023-04-25T09:54:48;13.40;92.10
39067;DHT22;24821;51.988;6.020;2023-04-25T09:57:18;13.20;92.70
39067;DHT22;24821;51.988;6.020;2023-04-25T09:59:49;13.10;92.70
39067;DHT22;24821;51.988;6.020;2023-04-25T10:02:17;13.10;92.50
39067;DHT22;24821;51.988;6.020;2023-04-25T10:04:47;13.10;92.70
39067;DHT22;24821;51.988;6.020;2023-04-25T10:07:13;12.90;92.40
39067;DHT22;24821;51.988;6.020;2023-04-25T10:09:39;12.90;90.70
39067;DHT22;24821;51.988;6.020;2023-04-25T10:12:06;12.90;89.70
39067;DHT22;24821;51.988;6.020;2023-04-25T10:14:33;13.00;87.40
39067;DHT22;24821;51.988;6.020;2023-04-25T10:16:59;13.20;89.00
39067;DHT22;24821;51.988;6.020;2023-04-25T10:19:26;13.40;89.30
39067;DHT22;24821;51.988;6.020;2023-04-25T10:24:24;13.80;89.10
39067;DHT22;24821;51.988;6.020;2023-04-25T10:26:51;13.90;84.90
39067;DHT22;24821;51.988;6.020;2023-04-25T10:29:26;13.70;84.20
39067;DHT22;24821;51.988;6.020;2023-04-25T10:31:51;13.60;85.80
39067;DHT22;24821;51.988;6.020;2023-04-25T10:34:18;13.40;84.20
39067;DHT22;24821;51.988;6.020;2023-04-25T10:36:49;13.20;84.80
39067;DHT22;24821;51.988;6.020;2023-04-25T10:39:22;13.10;84.60
39067;DHT22;24821;51.988;6.020;2023-04-25T10:41:57;13.20;86.10
39067;DHT22;24821;51.988;6.020;2023-04-25T10:44:26;13.50;85.50
39067;DHT22;24821;51.988;6.020;2023-04-25T10:46:55;13.30;88.20
39067;DHT22;24821;51.988;6.020;2023-04-25T10:49:38;12.70;90.20
39067;DHT22;24821;51.988;6.020;2023-04-25T10:52:26;12.10;91.50
39067;DHT22;24821;51.988;6.020;2023-04-25T10:54:54;11.50;92.60
39067;DHT22;24821;51.988;6.020;2023-04-25T11:00:12;11.10;94.80
39067;DHT22;24821;51.988;6.020;2023-04-25T11:02:42;11.10;95.00
39067;DHT22;24821;51.988;6.020;2023-04-25T11:05:32;11.00;94.70
39067;DHT22;24821;51.988;6.020;2023-04-25T11:07:58;11.00;94.40
39067;DHT22;24821;51.988;6.020;2023-04-25T11:10:28;11.20;94.40
39067;DHT22;24821;51.988;6.020;2023-04-25T11:12:54;11.30;94.40
39067;DHT22;24821;51.988;6.020;2023-04-25T11:15:20;11.60;94.90
39067;DHT22;24821;51.988;6.020;2023-04-25T11:17:46;11.80;93.10
39067;DHT22;24821;51.988;6.020;2023-04-25T11:20:12;11.90;92.60
39067;DHT22;24821;51.988;6.020;2023-04-25T11:22:40;12.10;92.00
39067;DHT22;24821;51.988;6.020;2023-04-25T11:25:07;12.10;91.70
39067;DHT22;24821;51.988;6.020;2023-04-25T11:27:33;12.20;91.60
39067;DHT22;24821;51.988;6.020;2023-04-25T11:30:10;12.40;91.90
39067;DHT22;24821;51.988;6.020;2023-04-25T11:32:35;12.60;90.90
39067;DHT22;24821;51.988;6.020;2023-04-25T11:35:01;12.60;90.70
39067;DHT22;24821;51.988;6.020;2023-04-25T11:37:26;12.70;88.70
39067;DHT22;24821;51.988;6.020;2023-04-25T11:39:53;12.80;88.70
39067;DHT22;24821;51.988;6.020;2023-04-25T11:42:19;12.80;87.80
39067;DHT22;24821;51.988;6.020;2023-04-25T11:44:45;12.90;86.20
39067;DHT22;24821;51.988;6.020;2023-04-25T11:47:10;12.90;84.50
39067;DHT22;24821;51.988;6.020;2023-04-25T11:49:36;13.10;85.60
39067;DHT22;24821;51.988;6.020;2023-04-25T11:52:01;13.30;87.00
39067;DHT22;24821;51.988;6.020;2023-04-25T11:54:27;13.50;85.40
39067;DHT22;24821;51.988;6.020;2023-04-25T11:56:53;13.70;84.60
39067;DHT22;24821;51.988;6.020;2023-04-25T11:59:23;13.70;81.20
39067;DHT22;24821;51.988;6.020;2023-04-25T12:01:49;13.60;82.30
39067;DHT22;24821;51.988;6.020;2023-04-25T12:04:19;13.60;81.10
39067;DHT22;24821;51.988;6.020;2023-04-25T12:06:47;13.80;80.60
39067;DHT22;24821;51.988;6.020;2023-04-25T12:09:14;14.00;80.40
39067;DHT22;24821;51.988;6.020;2023-04-25T12:12:09;14.20;80.30
39067;DHT22;24821;51.988;6.020;2023-04-25T12:14:35;14.40;80.40
39067;DHT22;24821;51.988;6.020;2023-04-25T12:17:03;14.60;79.70
39067;DHT22;24821;51.988;6.020;2023-04-25T12:19:33;14.40;78.80
39067;DHT22;24821;51.988;6.020;2023-04-25T12:22:01;14.30;79.80
39067;DHT22;24821;51.988;6.020;2023-04-25T12:24:28;14.10;79.30
39067;DHT22;24821;51.988;6.020;2023-04-25T12:27:04;13.60;85.20
39067;DHT22;24821;51.988;6.020;2023-04-25T12:29:31;13.00;88.60
39067;DHT22;24821;51.988;6.020;2023-04-25T12:31:58;12.50;89.90
39067;DHT22;24821;51.988;6.020;2023-04-25T12:34:24;12.10;91.40
39067;DHT22;24821;51.988;6.020;2023-04-25T12:36:51;12.00;92.00
39067;DHT22;24821;51.988;6.020;2023-04-25T12:39:21;11.90;91.90
39067;DHT22;24821;51.988;6.020;2023-04-25T12:41:47;11.80;92.00
39067;DHT22;24821;51.988;6.020;2023-04-25T12:44:14;11.80;91.30
39067;DHT22;24821;51.988;6.020;2023-04-25T12:46:40;11.80;91.80
39067;DHT22;24821;51.988;6.020;2023-04-25T12:49:06;11.80;91.20
39067;DHT22;24821;51.988;6.020;2023-04-25T12:51:36;11.80;91.20
39067;DHT22;24821;51.988;6.020;2023-04-25T12:54:03;11.80;91.00
39067;DHT22;24821;51.988;6.020;2023-04-25T12:56:30;11.90;91.50
39067;DHT22;24821;51.988;6.020;2023-04-25T12:58:55;12.00;92.10
39067;DHT22;24821;51.988;6.020;2023-04-25T13:01:21;12.10;91.50
39067;DHT22;24821;51.988;6.020;2023-04-25T13:03:47;12.20;91.70
39067;DHT22;24821;51.988;6.020;2023-04-25T13:06:17;12.50;91.80
39067;DHT22;24821;51.988;6.020;2023-04-25T13:08:42;12.70;91.50
39067;DHT22;24821;51.988;6.020;2023-04-25T13:11:08;13.10;91.00
39067;DHT22;24821;51.988;6.020;2023-04-25T13:13:34;13.40;90.90
39067;DHT22;24821;51.988;6.020;2023-04-25T13:16:01;13.70;91.00
39067;DHT22;24821;51.988;6.020;2023-04-25T13:18:30;13.80;90.60
39067;DHT22;24821;51.988;6.020;2023-04-25T13:20:57;13.80;89.10
39067;DHT22;24821;51.988;6.020;2023-04-25T13:23:23;13.70;89.20
39067;DHT22;24821;51.988;6.020;2023-04-25T13:25:48;13.40;86.40
39067;DHT22;24821;51.988;6.020;2023-04-25T13:28:14;13.20;84.40
39067;DHT22;24821;51.988;6.020;2023-04-25T13:30:40;12.90;86.40
39067;DHT22;24821;51.988;6.020;2023-04-25T13:33:06;12.70;89.10
39067;DHT22;24821;51.988;6.020;2023-04-25T13:35:32;12.60;89.10
39067;DHT22;24821;51.988;6.020;2023-04-25T13:37:58;12.40;88.90
39067;DHT22;24821;51.988;6.020;2023-04-25T13:40:24;12.40;88.60
39067;DHT22;24821;51.988;6.020;2023-04-25T13:42:49;12.60;85.80
39067;DHT22;24821;51.988;6.020;2023-04-25T13:45:16;12.80;84.80
39067;DHT22;24821;51.988;6.020;2023-04-25T13:47:42;13.00;82.30
39067;DHT22;24821;51.988;6.020;2023-04-25T13:50:07;13.10;82.10
39067;DHT22;24821;51.988;6.020;2023-04-25T13:52:33;13.20;82.70
39067;DHT22;24821;51.988;6.020;2023-04-25T13:54:59;13.10;83.00
39067;DHT22;24821;51.988;6.020;2023-04-25T13:57:25;13.20;83.60
39067;DHT22;24821;51.988;6.020;2023-04-25T13:59:51;13.30;83.30
39067;DHT22;24821;51.988;6.020;2023-04-25T14:02:18;13.50;81.90
39067;DHT22;24821;51.988;6.020;2023-04-25T14:04:43;13.60;82.60
39067;DHT22;24821;51.988;6.020;2023-04-25T14:07:09;13.50;81.40
39067;DHT22;24821;51.988;6.020;2023-04-25T14:09:36;13.30;78.90
39067;DHT22;24821;51.988;6.020;2023-04-25T14:12:02;13.10;78.20
39067;DHT22;24821;51.988;6.020;2023-04-25T14:14:28;12.80;78.60
39067;DHT22;24821;51.988;6.020;2023-04-25T14:16:53;12.90;81.30
39067;DHT22;24821;51.988;6.020;2023-04-25T14:19:20;13.10;81.10
39067;DHT22;24821;51.988;6.020;2023-04-25T14:21:46;13.30;79.30
39067;DHT22;24821;51.988;6.020;2023-04-25T14:24:12;13.50;79.00
39067;DHT22;24821;51.988;6.020;2023-04-25T14:26:38;13.50;78.50
39067;DHT22;24821;51.988;6.020;2023-04-25T14:29:05;13.40;78.00
39067;DHT22;24821;51.988;6.020;2023-04-25T14:31:34;13.30;77.20
39067;DHT22;24821;51.988;6.020;2023-04-25T14:34:00;13.00;78.70
39067;DHT22;24821;51.988;6.020;2023-04-25T14:36:27;12.90;80.70
39067;DHT22;24821;51.988;6.020;2023-04-25T14:38:53;12.70;80.90
39067;DHT22;24821;51.988;6.020;2023-04-25T14:41:19;12.60;79.60
39067;DHT22;24821;51.988;6.020;2023-04-25T14:43:44;12.50;79.30
39067;DHT22;24821;51.988;6.020;2023-04-25T14:46:10;12.40;78.80
39067;DHT22;24821;51.988;6.020;2023-04-25T14:48:36;12.40;79.20
39067;DHT22;24821;51.988;6.020;2023-04-25T14:51:02;12.60;78.60
39067;DHT22;24821;51.988;6.020;2023-04-25T14:53:28;12.70;78.30
39067;DHT22;24821;51.988;6.020;2023-04-25T14:55:53;12.90;77.70
39067;DHT22;24821;51.988;6.020;2023-04-25T14:58:19;12.90;77.80
39067;DHT22;24821;51.988;6.020;2023-04-25T15:00:45;12.90;76.10
39067;DHT22;24821;51.988;6.020;2023-04-25T15:03:11;12.90;76.50
39067;DHT22;24821;51.988;6.020;2023-04-25T15:05:38;12.90;76.40
39067;DHT22;24821;51.988;6.020;2023-04-25T15:08:04;12.90;77.30
39067;DHT22;24821;51.988;6.020;2023-04-25T15:10:30;12.80;77.80
39067;DHT22;24821;51.988;6.020;2023-04-25T15:12:56;12.70;79.70
39067;DHT22;24821;51.988;6.020;2023-04-25T15:15:22;12.50;80.80
39067;DHT22;24821;51.988;6.020;2023-04-25T15:17:49;12.60;82.40
39067;DHT22;24821;51.988;6.020;2023-04-25T15:20:14;12.50;81.20
39067;DHT22;24821;51.988;6.020;2023-04-25T15:22:42;12.50;79.80
39067;DHT22;24821;51.988;6.020;2023-04-25T15:25:08;12.40;79.50
39067;DHT22;24821;51.988;6.020;2023-04-25T15:27:38;12.30;79.50
39067;DHT22;24821;51.988;6.020;2023-04-25T15:30:08;12.40;79.40
39067;DHT22;24821;51.988;6.020;2023-04-25T15:32:36;12.50;80.40
39067;DHT22;24821;51.988;6.020;2023-04-25T15:35:04;12.50;79.40
39067;DHT22;24821;51.988;6.020;2023-04-25T15:37:31;12.50;80.20
39067;DHT22;24821;51.988;6.020;2023-04-25T15:40:15;12.40;80.10